EW5660 Weather Reports


time (UTC)temp
C
wind
direction
speed
KPH
gust
KPH
rain 1hr
cm
rain 24hr
cm
rain mn
cm
humidity
%
barometer
mb
20260503175541 15 257 19.3 43.5 0.00 0.00 0.00 42 1010.5
20260503175422 16 228 20.9 43.5 0.00 0.00 0.00 42 1010.6
20260503175301 15 246 17.7 43.5 0.00 0.00 0.00 43 1010.6
20260503175141 15 247 17.7 43.5 0.00 0.00 0.00 43 1010.6
20260503175006 15 234 20.9 43.5 0.00 0.00 0.00 42 1010.6
20260503174843 15 253 29.0 43.5 0.00 0.00 0.00 42 1010.7
20260503174721 15 265 22.5 38.6 0.00 0.00 0.00 42 1010.7
20260503174538 15 295 20.9 38.6 0.00 0.00 0.00 42 1010.7
20260503174352 16 245 19.3 38.6 0.00 0.00 0.00 43 1010.7
20260503174233 15 182 20.9 33.8 0.00 0.00 0.00 43 1010.7
20260503174052 15 261 20.9 32.2 0.00 0.00 0.00 44 1010.8
20260503173932 15 262 19.3 32.2 0.00 0.00 0.00 44 1010.8
20260503173810 15 295 19.3 32.2 0.00 0.00 0.00 44 1010.8
20260503173652 15 261 17.7 32.2 0.00 0.00 0.00 43 1010.8
20260503173509 15 247 20.9 33.8 0.00 0.00 0.00 43 1010.8
20260503173347 15 255 19.3 35.4 0.00 0.00 0.00 44 1010.9
20260503173205 15 262 16.1 35.4 0.00 0.00 0.00 45 1010.9
20260503173046 15 225 17.7 35.4 0.00 0.00 0.00 44 1010.9
20260503172926 15 223 19.3 41.8 0.00 0.00 0.00 44 1010.9
20260503172803 15 174 22.5 46.7 0.00 0.00 0.00 44 1010.9
20260503172621 15 239 22.5 46.7 0.00 0.00 0.00 44 1010.9
20260503172459 15 235 20.9 46.7 0.00 0.00 0.00 45 1010.9
20260503172321 15 208 24.1 46.7 0.00 0.00 0.00 44 1011.0
20260503172159 15 248 30.6 46.7 0.00 0.00 0.00 43 1010.9
20260503172035 15 252 25.7 46.7 0.00 0.00 0.00 43 1011.1
20260503171852 15 256 22.5 41.8 0.00 0.00 0.00 43 1011.0
20260503171716 15 281 20.9 41.8 0.00 0.00 0.00 44 1011.0
20260503171555 15 232 29.0 41.8 0.00 0.00 0.00 43 1011.2
20260503171437 15 279 24.1 41.8 0.00 0.00 0.00 43 1011.1
20260503171317 15 269 19.3 33.8 0.00 0.00 0.00 45 1011.1
20260503171159 15 227 19.3 33.8 0.00 0.00 0.00 45 1011.1
20260503171038 15 216 16.1 33.8 0.00 0.00 0.00 44 1011.0
20260503170917 15 216 16.1 33.8 0.00 0.00 0.00 45 1011.1
20260503170757 15 246 14.5 33.8 0.00 0.00 0.00 45 1011.2
20260503170638 15 225 16.1 33.8 0.00 0.00 0.00 45 1011.2
20260503170518 15 238 20.9 32.2 0.00 0.00 0.00 45 1011.2
20260503170358 14 242 20.9 30.6 0.00 0.00 0.00 46 1011.3
20260503170237 14 252 17.7 30.6 0.00 0.00 0.00 45 1011.3
20260503170115 14 255 17.7 33.8 0.00 0.00 0.00 45 1011.3
20260503160153 12 202 11.3 30.6 0.00 0.00 0.00 49 1012.1
20260503150917 11 275 14.5 33.8 0.00 0.00 0.00 48 1012.6
20260503150754 11 215 16.1 33.8 0.00 0.00 0.00 48 1012.5
20260503150631 11 258 19.3 33.8 0.00 0.00 0.00 48 1012.6
20260503150448 11 286 22.5 33.8 0.00 0.00 0.00 48 1012.5
20260503150325 11 252 17.7 32.2 0.00 0.00 0.00 48 1012.5
20260503150146 11 240 12.9 27.4 0.00 0.00 0.00 48 1012.6
20260503140220 12 265 19.3 30.6 0.00 0.00 0.00 48 1012.5
20260503131348 10 238 12.9 30.6 0.00 0.00 0.00 53 1012.8
20260503131225 10 243 9.7 30.6 0.00 0.00 0.00 54 1012.8
20260503131042 10 258 11.3 30.6 0.00 0.00 0.00 53 1012.8
20260503130919 9 271 16.1 30.6 0.00 0.00 0.00 53 1012.8
20260503130757 9 234 16.1 27.4 0.00 0.00 0.00 53 1012.8
20260503130618 9 244 12.9 27.4 0.00 0.00 0.00 54 1012.9
20260503130455 9 261 9.7 22.5 0.00 0.00 0.00 54 1012.9
20260503130333 9 248 12.9 22.5 0.00 0.00 0.00 54 1012.8
20260503130211 9 241 14.5 29.0 0.00 0.00 0.00 54 1012.9
20260503120217 6 204 8.0 20.9 0.00 0.00 0.00 63 1012.9
20260503110751 4 222 6.4 9.7 0.00 0.00 0.00 65 1012.9
20260503110610 3 252 6.4 9.7 0.00 0.00 0.00 65 1012.9
20260503110453 3 231 4.8 8.0 0.00 0.00 0.00 65 1012.9
20260503110332 3 241 4.8 11.3 0.00 0.00 0.00 65 1012.9
20260503110150 3 248 4.8 12.9 0.00 0.00 0.00 65 1012.9
20260503100146 3 227 8.0 16.1 0.00 0.00 0.00 63 1013.0
20260503090446 3 217 6.4 11.3 0.00 0.00 0.00 64 1013.6
20260503090304 3 200 8.0 11.3 0.00 0.00 0.00 64 1013.6
20260503090146 3 210 4.8 11.3 0.00 0.00 0.00 64 1013.5
20260503081523 2 213 1.6 4.8 0.00 0.00 0.00 67 1013.9
20260503081405 2 220 1.6 4.8 0.00 0.00 0.00 67 1014.0
20260503081244 2 213 1.6 4.8 0.00 0.00 0.00 68 1014.0
20260503081123 2 212 1.6 4.8 0.00 0.00 0.00 68 1014.1
20260503081002 2 212 3.2 4.8 0.00 0.00 0.00 68 1014.0
20260503080827 2 216 1.6 4.8 0.00 0.00 0.00 68 1014.0
20260503080643 2 205 1.6 4.8 0.00 0.00 0.00 68 1014.0
20260503080521 2 209 1.6 4.8 0.00 0.00 0.00 68 1014.0
20260503080359 2 201 0.0 4.8 0.00 0.00 0.00 69 1014.0
20260503080242 2 199 0.0 4.8 0.00 0.00 0.00 69 1014.0
20260503080120 2 199 0.0 4.8 0.00 0.00 0.00 69 1014.1
20260503072929 2 196 0.0 1.6 0.00 0.00 0.00 70 1014.1
20260503072806 2 196 0.0 1.6 0.00 0.00 0.00 70 1014.0
20260503072644 2 202 0.0 0.0 0.00 0.00 0.00 70 1014.1
20260503072526 2 201 0.0 0.0 0.00 0.00 0.00 70 1014.1
20260503072407 2 201 0.0 0.0 0.00 0.00 0.00 69 1014.1
20260503072245 2 201 0.0 0.0 0.00 0.00 0.00 69 1014.1
20260503072123 2 201 0.0 0.0 0.00 0.00 0.00 69 1014.1
20260503072004 2 201 0.0 1.6 0.00 0.00 0.00 69 1014.1
20260503071819 2 205 0.0 4.8 0.00 0.00 0.00 69 1014.1
20260503071658 2 205 0.0 4.8 0.00 0.00 0.00 69 1014.1
20260503071537 2 205 0.0 4.8 0.00 0.00 0.00 68 1014.2
20260503071359 2 205 0.0 4.8 0.00 0.00 0.00 68 1014.1
20260503071236 2 208 0.0 4.8 0.00 0.00 0.00 68 1014.2
20260503071117 2 208 1.6 4.8 0.00 0.00 0.00 68 1014.2
20260503070954 2 207 0.0 3.2 0.00 0.00 0.00 68 1014.2
20260503070757 2 205 0.0 3.2 0.00 0.00 0.00 68 1014.1
20260503070613 2 215 0.0 3.2 0.00 0.00 0.00 68 1014.2
20260503070451 2 223 0.0 3.2 0.00 0.00 0.00 68 1014.3
20260503070329 2 227 0.0 3.2 0.00 0.00 0.00 68 1014.3
20260503070154 2 225 0.0 0.0 0.00 0.00 0.00 68 1014.3
20260503060306 2 229 0.0 0.0 0.00 0.00 0.00 68 1014.8
20260503060132 2 229 0.0 0.0 0.00 0.00 0.00 68 1014.7
20260503055125 2 227 0.0 1.6 0.00 0.00 0.00 67 1014.8
20260503055047 2 227 0.0 1.6 0.00 0.00 0.00 67 1014.9
20260503054929 2 231 0.0 0.0 0.00 0.00 0.00 67 1014.9
20260503054830 2 231 0.0 0.0 0.00 0.00 0.00 67 1014.9
20260503054736 2 231 0.0 4.8 0.00 0.00 0.00 66 1014.9
20260503054638 2 231 0.0 4.8 0.00 0.00 0.00 66 1014.9
20260503054540 2 231 0.0 4.8 0.00 0.00 0.00 66 1014.9
20260503054440 2 231 0.0 4.8 0.00 0.00 0.00 66 1014.9
20260503054322 2 231 0.0 4.8 0.00 0.00 0.00 65 1014.9
20260503054223 2 231 0.0 4.8 0.00 0.00 0.00 65 1014.9
20260503054130 2 231 0.0 4.8 0.00 0.00 0.00 65 1014.9
20260503054031 2 231 0.0 4.8 0.00 0.00 0.00 65 1014.9
20260503053933 2 231 0.0 4.8 0.00 0.00 0.00 66 1014.9
20260503053835 2 231 0.0 1.6 0.00 0.00 0.00 66 1014.9
20260503053737 2 228 0.0 0.0 0.00 0.00 0.00 66 1014.9
20260503053658 2 227 0.0 0.0 0.00 0.00 0.00 66 1015.0
20260503053524 2 227 0.0 0.0 0.00 0.00 0.00 66 1015.0
20260503053426 2 227 0.0 0.0 0.00 0.00 0.00 66 1015.0
20260503053327 2 226 0.0 0.0 0.00 0.00 0.00 66 1015.0
20260503053230 2 225 0.0 0.0 0.00 0.00 0.00 67 1014.9
20260503053152 2 225 0.0 0.0 0.00 0.00 0.00 67 1014.9
20260503053033 2 225 0.0 0.0 0.00 0.00 0.00 67 1014.9
20260503052935 2 225 0.0 0.0 0.00 0.00 0.00 67 1015.0
20260503052840 2 225 0.0 0.0 0.00 0.00 0.00 67 1015.0
20260503052722 2 225 0.0 0.0 0.00 0.00 0.00 67 1014.9
20260503052624 2 225 0.0 0.0 0.00 0.00 0.00 67 1014.9
20260503052527 2 225 0.0 0.0 0.00 0.00 0.00 68 1015.0
20260503052448 2 225 0.0 0.0 0.00 0.00 0.00 68 1014.9
20260503052329 2 225 0.0 0.0 0.00 0.00 0.00 68 1015.0
20260503052231 2 225 0.0 0.0 0.00 0.00 0.00 68 1015.0
20260503052138 2 225 0.0 1.6 0.00 0.00 0.00 68 1015.0
20260503052039 2 225 0.0 1.6 0.00 0.00 0.00 68 1015.0
20260503051921 2 225 0.0 1.6 0.00 0.00 0.00 68 1015.0
20260503051824 2 225 0.0 1.6 0.00 0.00 0.00 68 1015.0
20260503051726 2 225 0.0 1.6 0.00 0.00 0.00 68 1015.0
20260503051648 2 225 0.0 1.6 0.00 0.00 0.00 68 1015.0
20260503051533 2 225 0.0 1.6 0.00 0.00 0.00 68 1015.0
20260503051434 2 225 0.0 1.6 0.00 0.00 0.00 68 1015.0
20260503051356 2 225 0.0 1.6 0.00 0.00 0.00 68 1015.0
20260503051237 2 225 0.0 0.0 0.00 0.00 0.00 68 1015.1
20260503051139 2 234 0.0 0.0 0.00 0.00 0.00 68 1015.1
20260503051021 3 234 0.0 0.0 0.00 0.00 0.00 68 1015.0
20260503050923 3 234 0.0 0.0 0.00 0.00 0.00 67 1015.1
20260503050828 3 234 0.0 0.0 0.00 0.00 0.00 67 1015.1
20260503050731 3 234 0.0 0.0 0.00 0.00 0.00 67 1015.1
20260503050632 3 234 0.0 0.0 0.00 0.00 0.00 67 1015.1
20260503050534 3 234 0.0 0.0 0.00 0.00 0.00 66 1015.1
20260503050436 3 234 0.0 0.0 0.00 0.00 0.00 66 1015.1
20260503050338 3 234 0.0 3.2 0.00 0.00 0.00 65 1015.1
20260503050224 3 234 0.0 4.8 0.00 0.00 0.00 65 1015.1
20260503050126 3 234 0.0 4.8 0.00 0.00 0.00 65 1015.1
20260503050028 3 234 0.0 4.8 0.00 0.00 0.00 64 1015.1
20260503045930 3 234 0.0 4.8 0.00 0.00 0.00 64 1015.1
20260503045832 3 234 0.0 4.8 0.00 0.00 0.00 64 1015.1
20260503045733 3 234 0.0 4.8 0.00 0.00 0.00 64 1015.1
20260503045635 3 234 0.0 4.8 0.00 0.00 0.00 64 1015.1
20260503045521 3 234 1.6 4.8 0.00 0.00 0.00 65 1015.1
20260503045424 3 235 1.6 4.8 0.00 0.00 0.00 65 1015.1
20260503045325 3 231 0.0 0.0 0.00 0.00 0.00 65 1015.1
20260503045228 3 231 0.0 0.0 0.00 0.00 0.00 65 1015.1
20260503045150 3 234 0.0 1.6 0.00 0.00 0.00 65 1015.1
20260503045030 3 232 0.0 1.6 0.00 0.00 0.00 65 1015.1
20260503044936 3 232 0.0 1.6 0.00 0.00 0.00 65 1015.1
20260503044838 3 232 0.0 1.6 0.00 0.00 0.00 65 1015.1
20260503044740 3 232 0.0 3.2 0.00 0.00 0.00 65 1015.1
20260503044622 3 232 0.0 3.2 0.00 0.00 0.00 65 1015.1
20260503044523 3 232 0.0 3.2 0.00 0.00 0.00 64 1015.2
20260503044444 3 232 0.0 3.2 0.00 0.00 0.00 64 1015.1
20260503044325 3 233 0.0 3.2 0.00 0.00 0.00 64 1015.1
20260503044231 3 234 0.0 3.2 0.00 0.00 0.00 64 1015.1
20260503044133 3 234 0.0 3.2 0.00 0.00 0.00 64 1015.2
20260503044035 3 234 1.6 3.2 0.00 0.00 0.00 64 1015.2
20260503043957 3 234 1.6 3.2 0.00 0.00 0.00 65 1015.1
20260503043837 3 234 0.0 3.2 0.00 0.00 0.00 65 1015.1
20260503043759 3 234 0.0 0.0 0.00 0.00 0.00 65 1015.2
20260503043620 3 233 0.0 0.0 0.00 0.00 0.00 65 1015.1
20260503043526 3 232 0.0 0.0 0.00 0.00 0.00 65 1015.2
20260503043448 3 232 0.0 3.2 0.00 0.00 0.00 65 1015.1
20260503043330 3 232 0.0 3.2 0.00 0.00 0.00 65 1015.2
20260503043252 3 232 0.0 4.8 0.00 0.00 0.00 65 1015.1
20260503043133 3 232 0.0 4.8 0.00 0.00 0.00 64 1015.2
20260503043035 3 237 0.0 4.8 0.00 0.00 0.00 65 1015.1
20260503042956 3 237 0.0 4.8 0.00 0.00 0.00 64 1015.1
20260503042837 3 237 0.0 4.8 0.00 0.00 0.00 64 1015.2
20260503042724 3 237 0.0 4.8 0.00 0.00 0.00 64 1015.1
20260503042626 3 237 1.6 4.8 0.00 0.00 0.00 64 1015.1
20260503042529 3 237 1.6 4.8 0.00 0.00 0.00 64 1015.1
20260503042430 3 237 1.6 4.8 0.00 0.00 0.00 64 1015.1
20260503042332 3 238 0.0 4.8 0.00 0.00 0.00 65 1015.1
20260503042234 3 238 0.0 4.8 0.00 0.00 0.00 65 1015.1
20260503042120 3 238 0.0 4.8 0.00 0.00 0.00 65 1015.1
20260503042022 3 238 0.0 4.8 0.00 0.00 0.00 65 1015.1
20260503041925 3 238 0.0 4.8 0.00 0.00 0.00 65 1015.1
20260503041827 3 238 0.0 4.8 0.00 0.00 0.00 65 1015.1
20260503041728 3 238 1.6 4.8 0.00 0.00 0.00 65 1015.1
20260503041630 3 238 1.6 4.8 0.00 0.00 0.00 65 1015.2
20260503041553 3 238 1.6 4.8 0.00 0.00 0.00 65 1015.2
20260503041437 3 238 1.6 4.8 0.00 0.00 0.00 65 1015.2
20260503041339 3 238 0.0 4.8 0.00 0.00 0.00 66 1015.2
20260503041240 3 231 0.0 0.0 0.00 0.00 0.00 66 1015.2
20260503041122 3 231 0.0 0.0 0.00 0.00 0.00 66 1015.2
20260503041045 3 224 0.0 0.0 0.00 0.00 0.00 66 1015.2
20260503040926 3 219 0.0 0.0 0.00 0.00 0.00 66 1015.2
20260503040832 3 233 0.0 0.0 0.00 0.00 0.00 66 1015.2
20260503040733 3 233 0.0 0.0 0.00 0.00 0.00 66 1015.2
20260503040635 3 229 0.0 0.0 0.00 0.00 0.00 66 1015.2
20260503040557 3 226 0.0 0.0 0.00 0.00 0.00 66 1015.2
20260503040437 3 226 0.0 0.0 0.00 0.00 0.00 66 1015.2
20260503040339 3 226 0.0 0.0 0.00 0.00 0.00 66 1015.3
20260503040240 3 226 0.0 0.0 0.00 0.00 0.00 66 1015.3
20260503040126 3 229 0.0 0.0 0.00 0.00 0.00 66 1015.3
20260503040028 3 229 0.0 0.0 0.00 0.00 0.00 66 1015.3
20260503035908 3 229 0.0 0.0 0.00 0.00 0.00 66 1015.3
20260503035746 3 229 0.0 0.0 0.00 0.00 0.00 66 1015.4
20260503035610 3 234 0.0 1.6 0.00 0.00 0.00 66 1015.3
20260503035448 3 241 0.0 1.6 0.00 0.00 0.00 66 1015.3
20260503035307 3 241 0.0 1.6 0.00 0.00 0.00 66 1015.3
20260503035145 3 240 0.0 1.6 0.00 0.00 0.00 66 1015.3
20260503034951 3 240 0.0 1.6 0.00 0.00 0.00 66 1015.3
20260503034829 3 240 0.0 1.6 0.00 0.00 0.00 66 1015.3
20260503034645 3 241 0.0 0.0 0.00 0.00 0.00 66 1015.3
20260503034523 3 241 0.0 0.0 0.00 0.00 0.00 66 1015.3
20260503034342 3 241 0.0 0.0 0.00 0.00 0.00 65 1015.4
20260503034224 3 241 0.0 0.0 0.00 0.00 0.00 65 1015.4
20260503034101 3 241 0.0 0.0 0.00 0.00 0.00 65 1015.3
20260503033939 3 241 0.0 0.0 0.00 0.00 0.00 65 1015.3
20260503033817 3 241 0.0 0.0 0.00 0.00 0.00 66 1015.4
20260503033643 3 241 0.0 0.0 0.00 0.00 0.00 66 1015.4
20260503033522 3 241 0.0 0.0 0.00 0.00 0.00 66 1015.4
20260503033400 3 240 0.0 0.0 0.00 0.00 0.00 65 1015.4
20260503033238 3 240 0.0 0.0 0.00 0.00 0.00 65 1015.4
20260503033058 3 240 0.0 1.6 0.00 0.00 0.00 65 1015.4
20260503032939 3 240 0.0 1.6 0.00 0.00 0.00 65 1015.4
20260503032821 3 244 0.0 1.6 0.00 0.00 0.00 64 1015.4
20260503032640 3 245 0.0 1.6 0.00 0.00 0.00 64 1015.4
20260503032521 3 245 0.0 1.6 0.00 0.00 0.00 64 1015.4
20260503032339 3 245 0.0 1.6 0.00 0.00 0.00 65 1015.4
20260503032218 3 244 0.0 0.0 0.00 0.00 0.00 65 1015.4
20260503032036 3 244 0.0 0.0 0.00 0.00 0.00 65 1015.4
20260503031900 3 244 0.0 0.0 0.00 0.00 0.00 65 1015.4
20260503031738 3 244 0.0 0.0 0.00 0.00 0.00 65 1015.5
20260503031557 4 244 0.0 0.0 0.00 0.00 0.00 65 1015.4
20260503031436 4 244 0.0 0.0 0.00 0.00 0.00 65 1015.4
20260503031254 4 244 0.0 0.0 0.00 0.00 0.00 65 1015.5
20260503031134 4 244 0.0 0.0 0.00 0.00 0.00 65 1015.5
20260503031014 4 244 0.0 0.0 0.00 0.00 0.00 65 1015.5
20260503030852 4 244 0.0 0.0 0.00 0.00 0.00 65 1015.6
20260503030730 4 244 0.0 0.0 0.00 0.00 0.00 64 1015.5
20260503030612 4 244 0.0 0.0 0.00 0.00 0.00 64 1015.5
20260503030454 4 244 0.0 0.0 0.00 0.00 0.00 64 1015.5
20260503030332 4 245 0.0 0.0 0.00 0.00 0.00 64 1015.6
20260503030148 4 244 0.0 0.0 0.00 0.00 0.00 64 1015.6
20260503025952 4 244 0.0 0.0 0.00 0.00 0.00 64 1015.6
20260503025830 4 244 0.0 0.0 0.00 0.00 0.00 64 1015.5
20260503025708 4 244 0.0 0.0 0.00 0.00 0.00 64 1015.5
20260503025526 4 244 0.0 1.6 0.00 0.00 0.00 64 1015.5
20260503025347 4 244 0.0 1.6 0.00 0.00 0.00 63 1015.5
20260503025229 4 246 0.0 1.6 0.00 0.00 0.00 63 1015.5
20260503025110 4 246 0.0 1.6 0.00 0.00 0.00 63 1015.5
20260503024948 4 246 0.0 1.6 0.00 0.00 0.00 63 1015.6
20260503024814 4 246 0.0 1.6 0.00 0.00 0.00 63 1015.6
20260503024650 4 250 0.0 1.6 0.00 0.00 0.00 63 1015.6
20260503024506 4 252 0.0 0.0 0.00 0.00 0.00 63 1015.6
20260503024343 5 252 0.0 0.0 0.00 0.00 0.00 63 1015.6
20260503024222 5 251 0.0 0.0 0.00 0.00 0.00 63 1015.6
20260503024103 5 252 0.0 0.0 0.00 0.00 0.00 63 1015.6
20260503023942 5 251 0.0 0.0 0.00 0.00 0.00 63 1015.6
20260503023819 5 252 0.0 0.0 0.00 0.00 0.00 63 1015.6
20260503023657 5 252 0.0 0.0 0.00 0.00 0.00 63 1015.6
20260503023517 5 251 0.0 0.0 0.00 0.00 0.00 62 1015.6
20260503023355 5 252 0.0 0.0 0.00 0.00 0.00 62 1015.5
20260503023233 5 251 0.0 0.0 0.00 0.00 0.00 61 1015.6
20260503023053 5 252 0.0 0.0 0.00 0.00 0.00 61 1015.6
20260503022936 5 251 0.0 0.0 0.00 0.00 0.00 61 1015.6
20260503022753 5 251 0.0 0.0 0.00 0.00 0.00 61 1015.6
20260503022633 5 251 0.0 0.0 0.00 0.00 0.00 62 1015.5
20260503022511 5 252 0.0 0.0 0.00 0.00 0.00 62 1015.6
20260503022327 5 251 0.0 0.0 0.00 0.00 0.00 62 1015.6
20260503022208 5 251 0.0 0.0 0.00 0.00 0.00 61 1015.6
20260503022049 5 251 0.0 0.0 0.00 0.00 0.00 61 1015.6
20260503021930 5 252 0.0 0.0 0.00 0.00 0.00 61 1015.6
20260503021809 5 252 0.0 0.0 0.00 0.00 0.00 61 1015.6
20260503021651 5 251 0.0 0.0 0.00 0.00 0.00 61 1015.6
20260503021529 5 252 0.0 0.0 0.00 0.00 0.00 61 1015.6
20260503021409 5 252 0.0 0.0 0.00 0.00 0.00 61 1015.6
20260503021248 5 252 0.0 0.0 0.00 0.00 0.00 61 1015.6
20260503021129 5 251 0.0 0.0 0.00 0.00 0.00 60 1015.6
20260503020947 5 251 0.0 0.0 0.00 0.00 0.00 60 1015.6
20260503020804 5 252 0.0 0.0 0.00 0.00 0.00 60 1015.6
20260503020646 5 252 0.0 0.0 0.00 0.00 0.00 60 1015.6
20260503020503 5 251 0.0 0.0 0.00 0.00 0.00 60 1015.6
20260503020344 5 252 0.0 0.0 0.00 0.00 0.00 59 1015.6
20260503020202 5 252 0.0 0.0 0.00 0.00 0.00 59 1015.6
20260503020041 5 252 0.0 0.0 0.00 0.00 0.00 59 1015.6
20260503015858 5 252 0.0 0.0 0.00 0.00 0.00 59 1015.6
20260503015741 6 251 0.0 0.0 0.00 0.00 0.00 59 1015.6
20260503015559 6 252 0.0 0.0 0.00 0.00 0.00 58 1015.5
20260503015440 6 252 0.0 0.0 0.00 0.00 0.00 58 1015.6
20260503015318 6 252 0.0 0.0 0.00 0.00 0.00 58 1015.6
20260503015200 6 252 0.0 0.0 0.00 0.00 0.00 58 1015.6
20260503015039 6 251 0.0 0.0 0.00 0.00 0.00 57 1015.6
20260503014916 6 252 0.0 0.0 0.00 0.00 0.00 57 1015.6
20260503014756 6 251 0.0 0.0 0.00 0.00 0.00 57 1015.5
20260503014634 6 251 0.0 0.0 0.00 0.00 0.00 57 1015.5
20260503014452 6 252 0.0 0.0 0.00 0.00 0.00 57 1015.5
20260503014330 6 252 0.0 0.0 0.00 0.00 0.00 57 1015.4
20260503014209 6 252 0.0 0.0 0.00 0.00 0.00 57 1015.4
20260503014047 6 252 0.0 0.0 0.00 0.00 0.00 57 1015.4
20260503013928 6 252 0.0 0.0 0.00 0.00 0.00 56 1015.4
20260503013804 6 252 0.0 0.0 0.00 0.00 0.00 56 1015.4
20260503013641 6 252 0.0 0.0 0.00 0.00 0.00 56 1015.4
20260503013520 6 252 0.0 0.0 0.00 0.00 0.00 56 1015.3
20260503013325 6 252 0.0 0.0 0.00 0.00 0.00 55 1015.3
20260503013204 6 252 0.0 0.0 0.00 0.00 0.00 55 1015.3
20260503013046 6 252 0.0 0.0 0.00 0.00 0.00 55 1015.3
20260503012926 6 262 0.0 0.0 0.00 0.00 0.00 55 1015.3
20260503012750 6 262 0.0 0.0 0.00 0.00 0.00 55 1015.3
20260503012629 6 262 0.0 0.0 0.00 0.00 0.00 54 1015.3
20260503012507 6 262 0.0 0.0 0.00 0.00 0.00 54 1015.3
20260503012344 6 262 0.0 0.0 0.00 0.00 0.00 54 1015.3
20260503012225 6 262 0.0 0.0 0.00 0.00 0.00 54 1015.3
20260503012022 6 262 0.0 0.0 0.00 0.00 0.00 54 1015.3
20260503011839 6 262 0.0 1.6 0.00 0.00 0.00 53 1015.3
20260503011717 6 262 0.0 1.6 0.00 0.00 0.00 53 1015.3
20260503011557 7 262 0.0 1.6 0.00 0.00 0.00 53 1015.3
20260503011438 7 262 0.0 1.6 0.00 0.00 0.00 53 1015.3
20260503011315 7 262 0.0 1.6 0.00 0.00 0.00 53 1015.3
20260503011134 7 262 0.0 1.6 0.00 0.00 0.00 53 1015.3
20260503011011 7 262 0.0 0.0 0.00 0.00 0.00 52 1015.2
20260503010817 7 262 0.0 3.2 0.00 0.00 0.00 52 1015.2
20260503010654 7 267 0.0 4.8 0.00 0.00 0.00 52 1015.2
20260503010533 7 267 0.0 4.8 0.00 0.00 0.00 52 1015.2
20260503010349 7 267 0.0 4.8 0.00 0.00 0.00 52 1015.2
20260503010231 7 267 0.0 4.8 0.00 0.00 0.00 52 1015.2
20260503010110 7 259 1.6 4.8 0.00 0.00 0.00 52 1015.2
20260503005928 7 259 1.6 4.8 0.00 0.00 0.00 52 1015.2
20260503005806 7 264 3.2 4.8 0.00 0.00 0.00 51 1015.2
20260503005647 7 259 1.6 4.8 0.00 0.00 0.00 51 1015.2
20260503005525 7 258 1.6 4.8 0.00 0.00 0.00 51 1015.2
20260503005405 7 254 1.6 4.8 0.00 0.00 0.00 51 1015.2
20260503005242 7 262 3.2 4.8 0.00 0.00 0.00 51 1015.2
20260503005119 7 260 0.0 4.8 0.00 0.00 0.00 51 1015.2
20260503004939 7 263 1.6 4.8 0.00 0.00 0.00 51 1015.2
20260503004818 7 261 3.2 6.4 0.00 0.00 0.00 50 1015.2
20260503004658 7 262 3.2 6.4 0.00 0.00 0.00 50 1015.1
20260503004518 7 255 3.2 6.4 0.00 0.00 0.00 50 1015.2
20260503004400 7 258 3.2 6.4 0.00 0.00 0.00 50 1015.2
20260503004237 7 259 3.2 6.4 0.00 0.00 0.00 50 1015.1
20260503004114 7 258 3.2 6.4 0.00 0.00 0.00 49 1015.1
20260503003950 7 257 3.2 8.0 0.00 0.00 0.00 49 1015.1
20260503003831 7 257 4.8 8.0 0.00 0.00 0.00 49 1015.1
20260503003710 8 254 4.8 9.7 0.00 0.00 0.00 49 1015.2
20260503003549 8 254 4.8 12.9 0.00 0.00 0.00 48 1015.1
20260503003405 8 245 3.2 12.9 0.00 0.00 0.00 48 1015.1
20260503003244 8 260 4.8 12.9 0.00 0.00 0.00 48 1015.1
20260503003125 8 255 4.8 12.9 0.00 0.00 0.00 48 1015.1
20260503003005 8 258 4.8 12.9 0.00 0.00 0.00 48 1015.1
20260503002843 8 263 6.4 12.9 0.00 0.00 0.00 47 1015.1
20260503002659 8 265 3.2 12.9 0.00 0.00 0.00 48 1015.1
20260503002541 8 236 3.2 8.0 0.00 0.00 0.00 47 1015.1
20260503002358 8 253 1.6 6.4 0.00 0.00 0.00 48 1015.1
20260503002234 8 251 3.2 6.4 0.00 0.00 0.00 47 1015.1
20260503002052 8 256 1.6 6.4 0.00 0.00 0.00 47 1015.1
20260503001932 8 288 3.2 6.4 0.00 0.00 0.00 47 1015.1
20260503001810 8 265 1.6 4.8 0.00 0.00 0.00 47 1015.1
20260503001650 8 284 0.0 3.2 0.00 0.00 0.00 47 1015.1
20260503001528 8 284 0.0 3.2 0.00 0.00 0.00 47 1015.0
20260503001409 8 284 0.0 4.8 0.00 0.00 0.00 47 1015.0
20260503001250 8 284 1.6 4.8 0.00 0.00 0.00 47 1015.0
20260503001127 8 269 1.6 4.8 0.00 0.00 0.00 47 1015.0
20260503001006 8 282 0.0 4.8 0.00 0.00 0.00 47 1015.0
20260503000842 8 286 0.0 6.4 0.00 0.00 0.00 47 1015.0
20260503000724 8 288 0.0 6.4 0.00 0.00 0.00 47 1015.0
20260503000604 8 288 0.0 6.4 0.00 0.00 0.00 47 1015.0
20260503000442 8 286 0.0 6.4 0.00 0.00 0.00 46 1015.0
20260503000320 8 280 0.0 6.4 0.00 0.00 0.00 46 1015.0
20260503000143 8 284 1.6 6.4 0.00 0.00 0.00 46 1015.1
20260503000021 8 281 3.2 9.7 0.00 0.00 0.00 47 1015.1
20260502235900 8 298 3.2 9.7 0.00 0.00 0.00 46 1015.1
20260502235740 8 290 3.2 11.3 0.00 0.00 0.00 46 1015.1
20260502235600 8 273 1.6 11.3 0.00 0.00 0.00 46 1015.1
20260502235438 8 280 6.4 14.5 0.00 0.00 0.00 46 1015.1
20260502235255 8 259 6.4 14.5 0.00 0.00 0.00 47 1015.1
20260502235131 8 288 4.8 14.5 0.00 0.00 0.00 47 1015.1
20260502234955 8 288 8.0 16.1 0.00 0.00 0.00 46 1015.1
20260502234832 8 303 6.4 16.1 0.00 0.00 0.00 46 1015.1
20260502234647 8 306 8.0 16.1 0.00 0.00 0.00 46 1015.1
20260502234506 8 302 4.8 16.1 0.00 0.00 0.00 46 1015.2
20260502234330 8 300 9.7 16.1 0.00 0.00 0.00 46 1015.1
20260502234210 8 297 6.4 12.9 0.00 0.00 0.00 47 1015.1
20260502234029 8 273 6.4 14.5 0.00 0.00 0.00 47 1015.1
20260502233848 8 289 4.8 14.5 0.00 0.00 0.00 47 1015.1
20260502233713 8 292 3.2 14.5 0.00 0.00 0.00 47 1015.1
20260502233551 8 252 4.8 14.5 0.00 0.00 0.00 47 1015.1
20260502233429 8 291 4.8 14.5 0.00 0.00 0.00 48 1015.2
20260502233307 8 297 6.4 14.5 0.00 0.00 0.00 47 1015.2
20260502233111 8 275 8.0 12.9 0.00 0.00 0.00 46 1015.1
20260502232950 8 286 6.4 11.3 0.00 0.00 0.00 46 1015.2
20260502232827 8 309 3.2 11.3 0.00 0.00 0.00 46 1015.2
20260502232644 8 314 4.8 12.9 0.00 0.00 0.00 46 1015.2
20260502232447 8 302 4.8 14.5 0.00 0.00 0.00 46 1015.2
20260502232326 8 267 6.4 14.5 0.00 0.00 0.00 46 1015.2
20260502232203 8 266 4.8 14.5 0.00 0.00 0.00 46 1015.2
20260502232040 8 258 8.0 14.5 0.00 0.00 0.00 46 1015.2
20260502231921 8 276 8.0 14.5 0.00 0.00 0.00 46 1015.2
20260502231802 8 253 8.0 14.5 0.00 0.00 0.00 45 1015.2
20260502231643 8 259 9.7 14.5 0.00 0.00 0.00 45 1015.2
20260502231520 8 272 8.0 12.9 0.00 0.00 0.00 46 1015.2
20260502231336 8 247 4.8 16.1 0.00 0.00 0.00 47 1015.2
20260502231219 8 279 4.8 17.7 0.00 0.00 0.00 47 1015.2
20260502231056 8 281 4.8 19.3 0.00 0.00 0.00 47 1015.3
20260502230937 8 256 4.8 19.3 0.00 0.00 0.00 47 1015.3
20260502230815 8 296 6.4 19.3 0.00 0.00 0.00 46 1015.3
20260502230618 8 278 9.7 19.3 0.00 0.00 0.00 46 1015.3
20260502230457 8 311 12.9 19.3 0.00 0.00 0.00 46 1015.3
20260502230313 8 248 9.7 17.7 0.00 0.00 0.00 46 1015.3
20260502230149 8 293 11.3 16.1 0.00 0.00 0.00 46 1015.3
20260502230030 8 300 8.0 16.1 0.00 0.00 0.00 46 1015.3
20260502225908 8 300 8.0 12.9 0.00 0.00 0.00 46 1015.3
20260502225748 8 286 8.0 12.9 0.00 0.00 0.00 46 1015.3
20260502225626 8 248 4.8 12.9 0.00 0.00 0.00 46 1015.3
20260502225507 8 296 4.8 12.9 0.00 0.00 0.00 46 1015.3
20260502225349 8 268 8.0 12.9 0.00 0.00 0.00 46 1015.3
20260502225228 8 285 8.0 12.9 0.00 0.00 0.00 46 1015.4
20260502225107 8 221 8.0 12.9 0.00 0.00 0.00 46 1015.3
20260502224945 8 248 8.0 12.9 0.00 0.00 0.00 46 1015.3
20260502224808 8 279 8.0 12.9 0.00 0.00 0.00 46 1015.3
20260502224646 8 258 3.2 11.3 0.00 0.00 0.00 46 1015.3
20260502224522 8 246 6.4 11.3 0.00 0.00 0.00 46 1015.3
20260502224359 8 251 4.8 11.3 0.00 0.00 0.00 46 1015.3
20260502224240 8 290 1.6 11.3 0.00 0.00 0.00 47 1015.4
20260502224117 8 296 3.2 14.5 0.00 0.00 0.00 46 1015.3
20260502223954 8 325 3.2 14.5 0.00 0.00 0.00 47 1015.3
20260502223831 8 332 6.4 14.5 0.00 0.00 0.00 46 1015.4
20260502223714 8 294 6.4 14.5 0.00 0.00 0.00 46 1015.4
20260502223553 8 287 4.8 14.5 0.00 0.00 0.00 46 1015.4
20260502223433 8 300 4.8 16.1 0.00 0.00 0.00 47 1015.4
20260502223311 8 270 8.0 16.1 0.00 0.00 0.00 46 1015.4
20260502223148 8 280 9.7 19.3 0.00 0.00 0.00 46 1015.4
20260502223031 8 302 6.4 19.3 0.00 0.00 0.00 46 1015.4
20260502222851 8 225 9.7 19.3 0.00 0.00 0.00 46 1015.4
20260502222726 8 317 9.7 19.3 0.00 0.00 0.00 46 1015.4
20260502222543 8 274 9.7 19.3 0.00 0.00 0.00 46 1015.4
20260502222425 8 287 11.3 19.3 0.00 0.00 0.00 46 1015.4
20260502222300 8 287 12.9 19.3 0.00 0.00 0.00 46 1015.4
20260502222137 8 274 6.4 17.7 0.00 0.00 0.00 47 1015.4
20260502222014 8 262 3.2 14.5 0.00 0.00 0.00 47 1015.4
20260502221855 8 297 3.2 14.5 0.00 0.00 0.00 46 1015.4
20260502221734 8 293 6.4 14.5 0.00 0.00 0.00 46 1015.3
20260502221613 8 271 9.7 17.7 0.00 0.00 0.00 46 1015.4
20260502221449 8 281 9.7 17.7 0.00 0.00 0.00 46 1015.4
20260502221327 8 277 6.4 17.7 0.00 0.00 0.00 46 1015.3
20260502221209 8 341 6.4 17.7 0.00 0.00 0.00 46 1015.4
20260502221028 8 290 8.0 17.7 0.00 0.00 0.00 46 1015.4
20260502220906 8 299 8.0 17.7 0.00 0.00 0.00 47 1015.3
20260502220722 8 296 6.4 17.7 0.00 0.00 0.00 46 1015.4
20260502220604 8 315 8.0 17.7 0.00 0.00 0.00 45 1015.3
20260502220444 8 294 11.3 17.7 0.00 0.00 0.00 45 1015.3
20260502220302 8 252 11.3 17.7 0.00 0.00 0.00 46 1015.3
20260502220139 8 235 11.3 17.7 0.00 0.00 0.00 46 1015.3
20260502220000 8 286 11.3 17.7 0.00 0.00 0.00 46 1015.3
20260502215839 8 277 8.0 17.7 0.00 0.00 0.00 46 1015.3
20260502215720 8 294 8.0 17.7 0.00 0.00 0.00 46 1015.4
20260502215600 8 286 11.3 17.7 0.00 0.00 0.00 45 1015.3
20260502215442 8 287 12.9 17.7 0.00 0.00 0.00 46 1015.4
20260502215325 8 296 11.3 16.1 0.00 0.00 0.00 46 1015.4
20260502215205 8 272 9.7 16.1 0.00 0.00 0.00 47 1015.4
20260502215044 8 292 9.7 14.5 0.00 0.00 0.00 47 1015.4
20260502214926 8 292 9.7 14.5 0.00 0.00 0.00 47 1015.4
20260502214806 8 306 8.0 17.7 0.00 0.00 0.00 47 1015.4
20260502214646 8 323 4.8 17.7 0.00 0.00 0.00 46 1015.4
20260502214504 8 323 4.8 17.7 0.00 0.00 0.00 46 1015.4
20260502214343 8 287 4.8 17.7 0.00 0.00 0.00 47 1015.5
20260502214205 8 292 8.0 19.3 0.00 0.00 0.00 46 1015.4
20260502214044 8 296 11.3 19.3 0.00 0.00 0.00 46 1015.4
20260502213920 8 299 11.3 20.9 0.00 0.00 0.00 46 1015.5
20260502213759 8 343 8.0 24.1 0.00 0.00 0.00 47 1015.5
20260502213639 8 348 9.7 24.1 0.00 0.00 0.00 46 1015.5
20260502213521 8 9 8.0 24.1 0.00 0.00 0.00 46 1015.5
20260502213402 8 315 6.4 24.1 0.00 0.00 0.00 46 1015.5
20260502213241 8 306 12.9 24.1 0.00 0.00 0.00 45 1015.4
20260502213121 8 302 16.1 24.1 0.00 0.00 0.00 45 1015.4
20260502213004 8 286 9.7 24.1 0.00 0.00 0.00 46 1015.4
20260502212841 8 269 9.7 19.3 0.00 0.00 0.00 45 1015.4
20260502212721 8 275 8.0 17.7 0.00 0.00 0.00 46 1015.4
20260502212539 8 276 9.7 17.7 0.00 0.00 0.00 46 1015.4
20260502212422 8 304 11.3 17.7 0.00 0.00 0.00 45 1015.4
20260502212238 8 294 6.4 12.9 0.00 0.00 0.00 47 1015.5
20260502212117 8 300 3.2 9.7 0.00 0.00 0.00 47 1015.5
20260502212000 8 311 3.2 9.7 0.00 0.00 0.00 47 1015.5
20260502211837 8 310 6.4 11.3 0.00 0.00 0.00 46 1015.4
20260502211717 8 283 4.8 17.7 0.00 0.00 0.00 47 1015.5
20260502211557 8 299 3.2 17.7 0.00 0.00 0.00 46 1015.5
20260502211436 8 317 6.4 17.7 0.00 0.00 0.00 45 1015.5
20260502211313 8 338 6.4 17.7 0.00 0.00 0.00 46 1015.5
20260502211155 8 355 9.7 17.7 0.00 0.00 0.00 45 1015.5
20260502211014 8 298 11.3 17.7 0.00 0.00 0.00 45 1015.6
20260502210854 8 290 9.7 14.5 0.00 0.00 0.00 47 1015.6
20260502210731 8 28 6.4 14.5 0.00 0.00 0.00 47 1015.6
20260502210613 8 24 4.8 12.9 0.00 0.00 0.00 47 1015.6
20260502210430 8 311 4.8 14.5 0.00 0.00 0.00 47 1015.6
20260502210309 8 299 4.8 19.3 0.00 0.00 0.00 47 1015.6
20260502210147 8 325 6.4 19.3 0.00 0.00 0.00 47 1015.6
20260502210012 8 327 6.4 19.3 0.00 0.00 0.00 48 1015.6
20260502205852 8 341 4.8 19.3 0.00 0.00 0.00 47 1015.7
20260502205707 8 340 9.7 19.3 0.00 0.00 0.00 46 1015.7
20260502205545 8 309 9.7 19.3 0.00 0.00 0.00 47 1015.7
20260502205409 8 336 9.7 19.3 0.00 0.00 0.00 47 1015.7
20260502205226 8 341 9.7 19.3 0.00 0.00 0.00 47 1015.6
20260502205042 8 331 9.7 19.3 0.00 0.00 0.00 46 1015.7
20260502204920 8 331 8.0 19.3 0.00 0.00 0.00 46 1015.7
20260502204759 8 329 11.3 19.3 0.00 0.00 0.00 46 1015.7
20260502204640 8 315 8.0 19.3 0.00 0.00 0.00 48 1015.7
20260502204516 8 321 9.7 19.3 0.00 0.00 0.00 47 1015.7
20260502204354 8 296 6.4 19.3 0.00 0.00 0.00 48 1015.7
20260502204231 8 318 6.4 19.3 0.00 0.00 0.00 47 1015.7
20260502204054 8 304 6.4 19.3 0.00 0.00 0.00 47 1015.7
20260502203910 8 284 8.0 19.3 0.00 0.00 0.00 47 1015.7
20260502203753 8 344 8.0 19.3 0.00 0.00 0.00 47 1015.8
20260502203610 8 335 11.3 19.3 0.00 0.00 0.00 47 1015.8
20260502203451 8 280 8.0 14.5 0.00 0.00 0.00 49 1015.9
20260502203333 8 349 8.0 14.5 0.00 0.00 0.00 48 1015.8
20260502203149 7 311 3.2 16.1 0.00 0.00 0.00 48 1015.8
20260502203004 7 282 4.8 17.7 0.00 0.00 0.00 48 1015.9
20260502202829 7 270 6.4 17.7 0.00 0.00 0.00 48 1015.9
20260502202709 7 302 8.0 17.7 0.00 0.00 0.00 47 1015.9
20260502202545 7 313 8.0 17.7 0.00 0.00 0.00 47 1015.9
20260502202423 7 277 11.3 17.7 0.00 0.00 0.00 47 1015.9
20260502202306 7 324 14.5 17.7 0.00 0.00 0.00 47 1016.0
20260502202124 7 296 9.7 17.7 0.00 0.00 0.00 48 1016.0
20260502202003 7 205 6.4 17.7 0.00 0.00 0.00 48 1016.0
20260502201821 7 347 4.8 14.5 0.00 0.00 0.00 49 1016.0
20260502201700 7 293 4.8 19.3 0.00 0.00 0.00 48 1016.1
20260502201542 7 323 6.4 19.3 0.00 0.00 0.00 48 1016.1
20260502201358 7 338 8.0 25.7 0.00 0.00 0.00 48 1016.1
20260502201235 7 296 6.4 25.7 0.00 0.00 0.00 48 1016.1
20260502201051 7 338 11.3 25.7 0.00 0.00 0.00 47 1016.1
20260502200916 7 291 12.9 25.7 0.00 0.00 0.00 48 1016.1
20260502200754 7 333 9.7 25.7 0.00 0.00 0.00 48 1016.1
20260502200633 7 312 9.7 25.7 0.00 0.00 0.00 48 1016.1
20260502200511 7 297 0.0 17.7 0.00 0.00 0.00 47 1016.1
20260502200332 7 290 4.8 17.7 0.00 0.00 0.00 47 1016.2
20260502200210 7 306 9.7 17.7 0.00 0.00 0.00 47 1016.2
20260502200050 7 272 8.0 17.7 0.00 0.00 0.00 46 1016.3
20260502195911 8 275 8.0 17.7 0.00 0.00 0.00 46 1016.3
20260502195732 8 315 11.3 17.7 0.00 0.00 0.00 46 1016.3
20260502195552 8 254 11.3 17.7 0.00 0.00 0.00 47 1016.2
20260502195432 8 294 4.8 17.7 0.00 0.00 0.00 48 1016.3
20260502195310 8 280 4.8 20.9 0.00 0.00 0.00 49 1016.3
20260502195149 8 294 9.7 22.5 0.00 0.00 0.00 48 1016.3
20260502195029 8 311 9.7 22.5 0.00 0.00 0.00 47 1016.3
20260502194909 8 270 4.8 22.5 0.00 0.00 0.00 47 1016.3
20260502194750 8 243 9.7 22.5 0.00 0.00 0.00 46 1016.4
20260502194606 8 259 12.9 22.5 0.00 0.00 0.00 46 1016.4
20260502194446 8 219 14.5 22.5 0.00 0.00 0.00 47 1016.4
20260502194324 8 264 16.1 22.5 0.00 0.00 0.00 47 1016.4
20260502194204 8 267 12.9 22.5 0.00 0.00 0.00 47 1016.4
20260502194042 7 300 11.3 20.9 0.00 0.00 0.00 47 1016.4
20260502193924 7 289 9.7 19.3 0.00 0.00 0.00 46 1016.5
20260502193802 7 277 11.3 17.7 0.00 0.00 0.00 46 1016.4
20260502193641 7 321 11.3 17.7 0.00 0.00 0.00 46 1016.4
20260502193518 7 312 11.3 17.7 0.00 0.00 0.00 46 1016.5
20260502193343 7 277 12.9 17.7 0.00 0.00 0.00 47 1016.5
20260502193221 7 315 9.7 20.9 0.00 0.00 0.00 48 1016.5
20260502193059 7 279 6.4 25.7 0.00 0.00 0.00 47 1016.5
20260502192936 7 265 6.4 25.7 0.00 0.00 0.00 46 1016.5
20260502192801 7 260 9.7 25.7 0.00 0.00 0.00 47 1016.5
20260502192640 7 322 11.3 25.7 0.00 0.00 0.00 47 1016.6
20260502192456 7 291 16.1 25.7 0.00 0.00 0.00 47 1016.6
20260502192336 7 296 16.1 25.7 0.00 0.00 0.00 48 1016.6
20260502192215 7 315 11.3 22.5 0.00 0.00 0.00 48 1016.6
20260502192054 7 272 8.0 19.3 0.00 0.00 0.00 48 1016.6
20260502191931 7 275 6.4 19.3 0.00 0.00 0.00 47 1016.6
20260502191811 7 251 6.4 19.3 0.00 0.00 0.00 47 1016.7
20260502191649 7 264 8.0 19.3 0.00 0.00 0.00 47 1016.6
20260502191531 7 260 8.0 19.3 0.00 0.00 0.00 47 1016.7
20260502191411 7 288 12.9 19.3 0.00 0.00 0.00 47 1016.7
20260502191248 7 270 9.7 14.5 0.00 0.00 0.00 48 1016.7
20260502191130 7 277 3.2 14.5 0.00 0.00 0.00 49 1016.7
20260502191013 7 299 3.2 14.5 0.00 0.00 0.00 49 1016.7
20260502190851 7 297 8.0 14.5 0.00 0.00 0.00 48 1016.7
20260502190708 7 319 6.4 14.5 0.00 0.00 0.00 49 1016.7
20260502190525 7 346 6.4 14.5 0.00 0.00 0.00 49 1016.7
20260502190351 7 292 8.0 14.5 0.00 0.00 0.00 49 1016.7
20260502190209 7 336 8.0 17.7 0.00 0.00 0.00 49 1016.7
20260502190051 7 300 9.7 17.7 0.00 0.00 0.00 48 1016.7
20260502185930 7 309 9.7 17.7 0.00 0.00 0.00 48 1016.8
20260502185813 7 306 9.7 20.9 0.00 0.00 0.00 48 1016.7
20260502185656 7 311 6.4 20.9 0.00 0.00 0.00 47 1016.7
20260502185536 7 355 6.4 20.9 0.00 0.00 0.00 47 1016.8
20260502185412 7 269 11.3 20.9 0.00 0.00 0.00 48 1016.8
20260502185249 7 292 12.9 20.9 0.00 0.00 0.00 46 1016.9
20260502185052 7 301 14.5 20.9 0.00 0.00 0.00 47 1016.8
20260502184932 7 294 8.0 19.3 0.00 0.00 0.00 48 1016.8
20260502184810 7 294 8.0 20.9 0.00 0.00 0.00 48 1016.9
20260502184648 7 284 8.0 22.5 0.00 0.00 0.00 48 1016.9
20260502184527 7 272 11.3 24.1 0.00 0.00 0.00 48 1016.9
20260502184407 7 304 11.3 24.1 0.00 0.00 0.00 48 1017.0
20260502184243 7 286 9.7 24.1 0.00 0.00 0.00 48 1016.9
20260502184121 7 244 11.3 24.1 0.00 0.00 0.00 48 1016.9
20260502184002 7 294 14.5 24.1 0.00 0.00 0.00 48 1017.0
20260502183842 7 261 14.5 24.1 0.00 0.00 0.00 49 1017.0
20260502183637 7 304 12.9 22.5 0.00 0.00 0.00 49 1016.9
20260502183515 7 301 9.7 20.9 0.00 0.00 0.00 49 1017.0
20260502183354 7 333 8.0 20.9 0.00 0.00 0.00 49 1017.0
20260502183235 7 291 8.0 20.9 0.00 0.00 0.00 49 1017.0
20260502183113 7 301 12.9 20.9 0.00 0.00 0.00 49 1017.0
20260502182828 7 248 12.9 19.3 0.00 0.00 0.00 50 1017.0
20260502182710 7 279 9.7 22.5 0.00 0.00 0.00 50 1017.0
20260502182550 7 275 6.4 22.5 0.00 0.00 0.00 50 1017.0
20260502182428 7 297 9.7 22.5 0.00 0.00 0.00 50 1016.9
20260502182244 7 299 8.0 22.5 0.00 0.00 0.00 49 1017.0
20260502182127 7 264 12.9 22.5 0.00 0.00 0.00 49 1017.0
20260502182004 7 282 11.3 22.5 0.00 0.00 0.00 50 1017.0
20260502181843 7 290 9.7 22.5 0.00 0.00 0.00 50 1017.0
20260502181721 7 290 12.9 22.5 0.00 0.00 0.00 49 1017.0
20260502181558 7 290 12.9 22.5 0.00 0.00 0.00 49 1017.1
20260502181440 7 289 11.3 22.5 0.00 0.00 0.00 50 1017.1
20260502181317 7 318 14.5 22.5 0.00 0.00 0.00 49 1017.0
20260502181155 7 308 14.5 22.5 0.00 0.00 0.00 48 1017.1
20260502181033 7 282 11.3 17.7 0.00 0.00 0.00 48 1017.0
20260502180914 7 296 6.4 20.9 0.00 0.00 0.00 48 1017.1
20260502180751 7 233 4.8 27.4 0.00 0.00 0.00 50 1017.0
20260502180629 7 292 4.8 27.4 0.00 0.00 0.00 50 1017.1
20260502180510 7 302 9.7 27.4 0.00 0.00 0.00 48 1017.1
20260502180353 7 320 9.7 27.4 0.00 0.00 0.00 48 1017.1
20260502180231 7 318 11.3 27.4 0.00 0.00 0.00 47 1017.1
20260502180108 7 279 17.7 27.4 0.00 0.00 0.00 47 1017.1